Terminal Aerodrome Forecast
Issued by NWS Wilmington, NC

Home | Current Version | Previous Version | Text Only | Print | Product List | Glossary On
Versions: 1 2 3 4 5 6 7 8 9 10 11 12 13 14 15 16 17 18 19 20 21 22 23 24 25 26 27 28 29
000
FTUS42 KILM 240755 AAA
TAFLBT
TAF AMD
KLBT 240755Z 2408/2506 31010G15KT P6SM SCT015 BKN060
     FM241400 29013G20KT P6SM SKC
     FM242230 28006KT P6SM SKC=

USA.gov is the U.S. government's official web portal to all federal, state and local government web resources and services.